KBUR

Bob Hope Airport

Burbank, California, USA
METAR KBUR 170553Z 36006KT 10SM CLR 13/09 A2979 RMK AO2 SLP080 T01330094 10167 20117 53016
Observed Flight Rules
Dec-17 @ 05:53 UTC (21 minutes ago) Visual Flight Rules
Wind Visibility Clouds
360° at 6 knots 10 miles
  • Clear skies
Temperatures Readings
Current 13°C / 55°F
Dewpoint 9°C / 48°F
Humidity 77%
Altimeter 29.79" Hg
Pressure 1008 hPa
Elevation 217
METAR KBUR 170553Z 36006KT 10SM CLR 13/09 A2979 RMK AO2 SLP080 T01330094 10167 20117 53016
Observed Flight Rules
Dec-17 @ 05:53 UTC
(21 minutes ago)
VFR
Wind Visibility
360° at 6 knots 10 miles
Clouds
  • Clear skies
Temperature Dewpoint
13°C / 55°F 9°C / 48°F
Humidity Altimeter Pressure
77% 29.79" Hg 1008 hPa